createdAt,value
2023-02-15T00:01:26.545Z,23.20
2023-02-15T00:03:59.823Z,24.30
2023-02-15T00:06:33.681Z,25.00
2023-02-15T00:09:07.610Z,24.10
2023-02-15T00:11:51.612Z,25.00
2023-02-15T00:14:26.730Z,24.70
2023-02-15T00:17:01.176Z,22.40
2023-02-15T00:19:35.217Z,25.00
2023-02-15T00:22:09.116Z,25.30
2023-02-15T00:24:42.653Z,26.40
2023-02-15T00:27:16.537Z,24.40
2023-02-15T00:29:51.099Z,25.00
2023-02-15T00:32:24.878Z,25.40
2023-02-15T00:34:58.705Z,24.70
2023-02-15T00:37:32.423Z,25.70
2023-02-15T00:40:09.569Z,23.70
2023-02-15T00:42:43.310Z,25.10
2023-02-15T00:45:17.470Z,25.50
2023-02-15T00:47:52.509Z,26.00
2023-02-15T00:50:26.739Z,26.80
2023-02-15T00:53:00.900Z,27.50
2023-02-15T00:55:34.617Z,26.50
2023-02-15T00:58:08.124Z,26.20
2023-02-15T01:00:44.233Z,25.40
2023-02-15T01:03:19.014Z,26.10
2023-02-15T01:05:56.262Z,27.10
2023-02-15T01:08:41.385Z,27.40
2023-02-15T01:11:23.465Z,28.70
2023-02-15T01:13:59.884Z,25.80
2023-02-15T01:16:33.383Z,26.80
2023-02-15T01:19:07.697Z,28.60
2023-02-15T01:21:42.060Z,27.70
2023-02-15T01:24:18.188Z,25.70
2023-02-15T01:26:51.619Z,27.40
2023-02-15T01:29:25.539Z,26.30
2023-02-15T01:32:00.349Z,27.10
2023-02-15T01:34:35.265Z,27.60
2023-02-15T01:37:08.779Z,27.90
2023-02-15T01:39:42.592Z,28.30
2023-02-15T01:42:27.693Z,27.30
2023-02-15T01:45:02.906Z,26.80
2023-02-15T01:47:41.312Z,28.10
2023-02-15T01:50:21.348Z,26.00
2023-02-15T01:52:59.448Z,27.60
2023-02-15T01:55:36.687Z,28.20
2023-02-15T01:58:11.576Z,27.00
2023-02-15T02:00:46.224Z,27.60
2023-02-15T02:03:20.669Z,26.60
2023-02-15T02:05:54.729Z,25.30
2023-02-15T02:08:29.125Z,26.90
2023-02-15T02:11:02.757Z,24.20
2023-02-15T02:13:36.430Z,24.60
2023-02-15T02:16:16.107Z,26.10
2023-02-15T02:19:05.463Z,25.80
2023-02-15T02:22:09.429Z,26.20
2023-02-15T02:25:24.915Z,26.10
2023-02-15T02:28:04.940Z,24.10
2023-02-15T02:31:01.925Z,26.60
2023-02-15T02:33:50.823Z,23.40
2023-02-15T02:36:34.395Z,25.80
2023-02-15T02:39:24.300Z,25.10
2023-02-15T02:42:04.472Z,24.90
2023-02-15T02:44:45.462Z,25.00
2023-02-15T02:47:25.613Z,25.60
2023-02-15T02:50:04.030Z,23.70
2023-02-15T02:52:43.212Z,24.30
2023-02-15T02:55:23.831Z,24.20
2023-02-15T02:58:04.351Z,22.80
2023-02-15T03:00:41.902Z,25.30
2023-02-15T03:03:19.978Z,24.60
2023-02-15T03:05:57.305Z,24.40
2023-02-15T03:08:38.607Z,25.40
2023-02-15T03:11:13.914Z,24.20
2023-02-15T03:13:50.930Z,24.50
2023-02-15T03:16:29.646Z,24.40
2023-02-15T03:19:08.213Z,21.80
2023-02-15T03:21:59.208Z,22.60
2023-02-15T03:24:38.664Z,23.00
2023-02-15T03:27:18.591Z,24.20
2023-02-15T03:29:56.328Z,22.80
2023-02-15T03:32:33.660Z,24.30
2023-02-15T03:35:08.318Z,22.80
2023-02-15T03:37:45.918Z,22.20
2023-02-15T03:40:42.553Z,22.10
2023-02-15T03:43:23.888Z,20.00
2023-02-15T03:46:03.221Z,22.10
2023-02-15T03:48:40.778Z,19.70
2023-02-15T03:51:37.663Z,21.40
2023-02-15T03:54:15.144Z,19.80
2023-02-15T03:57:09.046Z,20.70
2023-02-15T04:00:00.326Z,19.00
2023-02-15T04:02:41.297Z,18.90
2023-02-15T04:05:15.014Z,17.50
2023-02-15T04:07:49.142Z,14.60
2023-02-15T04:10:40.641Z,13.10
2023-02-15T04:13:14.352Z,14.60
2023-02-15T04:16:08.262Z,15.20
2023-02-15T04:19:17.248Z,16.80
2023-02-15T04:22:08.818Z,15.80
2023-02-15T04:25:00.329Z,15.50
2023-02-15T04:27:34.782Z,14.70
2023-02-15T04:30:10.849Z,15.70
2023-02-15T04:32:54.491Z,15.80
2023-02-15T04:35:28.426Z,15.40
2023-02-15T04:38:02.394Z,16.10
2023-02-15T04:40:36.549Z,15.80
2023-02-15T04:43:10.069Z,15.80
2023-02-15T04:45:44.179Z,15.40
2023-02-15T04:48:17.744Z,14.80
2023-02-15T04:50:51.566Z,16.20
2023-02-15T04:53:25.613Z,16.50
2023-02-15T04:55:59.213Z,18.70
2023-02-15T04:58:33.080Z,16.70
2023-02-15T05:01:07.595Z,17.50
2023-02-15T05:03:42.218Z,17.00
2023-02-15T05:06:18.933Z,17.30
2023-02-15T05:08:52.680Z,15.50
2023-02-15T05:11:26.616Z,16.00
2023-02-15T05:14:00.520Z,16.10
2023-02-15T05:16:34.664Z,17.10
2023-02-15T05:19:08.397Z,15.80
2023-02-15T05:21:47.141Z,15.90
2023-02-15T05:24:38.718Z,16.20
2023-02-15T05:27:40.561Z,17.40
2023-02-15T05:30:16.596Z,14.90
2023-02-15T05:32:50.051Z,13.60
2023-02-15T05:35:24.374Z,14.30
2023-02-15T05:37:58.023Z,15.00
2023-02-15T05:40:31.483Z,15.40
2023-02-15T05:43:04.838Z,14.00
2023-02-15T05:45:38.662Z,15.00
2023-02-15T05:48:12.578Z,13.80
2023-02-15T05:50:46.568Z,14.80
2023-02-15T05:53:20.286Z,14.60
2023-02-15T05:55:54.600Z,14.90
2023-02-15T05:58:28.779Z,14.40
2023-02-15T06:01:09.703Z,15.50
2023-02-15T06:03:44.265Z,16.60
2023-02-15T06:06:18.089Z,16.40
2023-02-15T06:08:52.002Z,17.40
2023-02-15T06:11:28.831Z,15.70
2023-02-15T06:14:02.314Z,14.90
2023-02-15T06:16:35.778Z,14.00
2023-02-15T06:19:09.545Z,14.80
2023-02-15T06:21:43.626Z,15.00
2023-02-15T06:24:17.464Z,12.80
2023-02-15T06:26:50.832Z,14.00
2023-02-15T06:29:24.989Z,15.30
2023-02-15T06:31:59.048Z,15.00
2023-02-15T06:34:33.214Z,17.90
2023-02-15T06:37:06.831Z,15.20
2023-02-15T06:39:40.525Z,15.80
2023-02-15T06:42:14.776Z,14.80
2023-02-15T06:44:48.346Z,16.00
2023-02-15T06:47:22.280Z,18.70
2023-02-15T06:49:56.154Z,17.10
2023-02-15T06:52:30.946Z,18.40
2023-02-15T06:55:04.473Z,17.60
2023-02-15T06:57:38.055Z,16.80
2023-02-15T07:00:14.041Z,16.70
2023-02-15T07:02:48.024Z,17.30
2023-02-15T07:05:21.962Z,17.70
2023-02-15T07:07:56.280Z,18.40
2023-02-15T07:10:30.691Z,21.00
2023-02-15T07:13:05.855Z,18.60
2023-02-15T07:15:39.544Z,18.90
2023-02-15T07:18:13.794Z,17.90
2023-02-15T07:20:47.260Z,18.00
2023-02-15T07:23:20.446Z,18.10
2023-02-15T07:26:01.297Z,17.90
2023-02-15T07:28:37.881Z,20.40
2023-02-15T07:31:11.489Z,17.40
2023-02-15T07:33:45.265Z,15.70
2023-02-15T07:36:28.444Z,17.90
2023-02-15T07:39:02.455Z,17.20
2023-02-15T07:41:36.371Z,19.60
2023-02-15T07:44:18.363Z,17.10
2023-02-15T07:46:51.952Z,18.80
2023-02-15T07:49:28.547Z,18.30
2023-02-15T07:52:02.898Z,15.10
2023-02-15T07:54:36.448Z,17.80
2023-02-15T07:57:10.195Z,16.90
2023-02-15T07:59:43.865Z,16.40
2023-02-15T08:02:18.509Z,14.90
2023-02-15T08:04:52.737Z,15.90
2023-02-15T08:07:26.045Z,16.30
2023-02-15T08:10:00.693Z,17.10
2023-02-15T08:12:34.855Z,17.40
2023-02-15T08:15:09.417Z,20.80
2023-02-15T08:17:43.469Z,18.30
2023-02-15T08:20:17.685Z,16.20
2023-02-15T08:22:51.266Z,13.50
2023-02-15T08:25:24.984Z,14.00
2023-02-15T08:27:58.549Z,12.80
2023-02-15T08:30:34.471Z,13.00
2023-02-15T08:33:11.186Z,15.30
2023-02-15T08:35:44.468Z,16.50
2023-02-15T08:38:18.297Z,16.40
2023-02-15T08:40:52.136Z,13.40
2023-02-15T08:43:25.687Z,12.00
2023-02-15T08:45:59.135Z,11.80
2023-02-15T08:48:32.689Z,11.80
2023-02-15T08:51:12.140Z,13.30
2023-02-15T08:53:47.353Z,13.00
2023-02-15T08:56:23.029Z,13.50
2023-02-15T08:59:09.288Z,12.20
2023-02-15T09:01:43.137Z,12.00
2023-02-15T09:04:22.089Z,12.40
2023-02-15T09:06:56.543Z,13.80
2023-02-15T09:09:34.079Z,14.20
2023-02-15T09:12:08.434Z,13.30
2023-02-15T09:14:42.886Z,13.10
2023-02-15T09:17:16.892Z,12.50
2023-02-15T09:19:50.830Z,13.90
2023-02-15T09:22:24.704Z,14.20
2023-02-15T09:24:58.307Z,13.10
2023-02-15T09:27:32.308Z,15.30
2023-02-15T09:30:06.316Z,13.20
2023-02-15T09:32:39.586Z,15.70
2023-02-15T09:35:13.499Z,13.30
2023-02-15T09:37:47.105Z,13.50
2023-02-15T09:40:42.128Z,14.50
2023-02-15T09:43:31.319Z,14.90
2023-02-15T09:46:32.482Z,14.70
2023-02-15T09:49:17.536Z,15.20
2023-02-15T09:52:12.723Z,14.10
2023-02-15T09:55:04.381Z,13.00
2023-02-15T09:57:44.732Z,14.20
2023-02-15T10:00:28.235Z,14.00
2023-02-15T10:03:16.526Z,14.20
2023-02-15T10:06:06.706Z,13.80
2023-02-15T10:09:01.640Z,12.60
2023-02-15T10:11:51.317Z,13.20
2023-02-15T10:14:53.532Z,13.40
2023-02-15T10:17:38.838Z,14.10
2023-02-15T10:20:26.642Z,14.20
2023-02-15T10:23:28.390Z,13.20
2023-02-15T10:26:12.663Z,12.10
2023-02-15T10:28:51.592Z,11.50
2023-02-15T10:31:37.733Z,14.50
2023-02-15T10:34:18.663Z,12.10
2023-02-15T10:37:18.061Z,12.80
2023-02-15T10:40:02.369Z,13.60
2023-02-15T10:42:49.544Z,12.60
2023-02-15T10:45:33.328Z,12.00
2023-02-15T10:48:29.306Z,15.00
2023-02-15T10:51:05.416Z,12.60
2023-02-15T10:53:58.896Z,12.80
2023-02-15T10:56:39.040Z,11.40
2023-02-15T10:59:28.886Z,13.90
2023-02-15T11:02:13.782Z,13.50
2023-02-15T11:04:56.894Z,14.00
2023-02-15T11:07:40.597Z,13.50
2023-02-15T11:10:29.750Z,12.80
2023-02-15T11:13:11.287Z,13.40
2023-02-15T11:15:48.962Z,13.30
2023-02-15T11:18:29.020Z,15.00
2023-02-15T11:21:05.058Z,12.30
2023-02-15T11:23:46.185Z,13.80
2023-02-15T11:26:23.841Z,12.90
2023-02-15T11:29:01.628Z,15.40
2023-02-15T11:31:46.186Z,16.10
2023-02-15T11:34:28.205Z,14.00
2023-02-15T11:37:08.762Z,17.20
2023-02-15T11:39:42.720Z,15.90
2023-02-15T11:42:21.294Z,13.60
2023-02-15T11:45:02.756Z,14.20
2023-02-15T11:47:39.732Z,14.50
2023-02-15T11:50:19.148Z,15.80
2023-02-15T11:52:53.589Z,14.70
2023-02-15T11:55:29.925Z,16.30
2023-02-15T11:58:11.447Z,16.60
2023-02-15T12:00:48.401Z,17.30
2023-02-15T12:03:24.983Z,17.50
2023-02-15T12:06:05.189Z,17.80
2023-02-15T12:08:44.700Z,19.70
2023-02-15T12:11:25.576Z,19.80
2023-02-15T12:14:04.126Z,19.00
2023-02-15T12:16:45.424Z,19.80
2023-02-15T12:19:35.903Z,18.50
2023-02-15T12:22:21.038Z,19.70
2023-02-15T12:24:57.262Z,20.10
2023-02-15T12:27:33.157Z,19.80
2023-02-15T12:30:14.418Z,19.70
2023-02-15T12:32:54.992Z,18.10
2023-02-15T12:35:33.241Z,20.50
2023-02-15T12:38:22.455Z,20.50
2023-02-15T12:41:04.661Z,19.60
2023-02-15T12:43:42.869Z,21.10
2023-02-15T12:46:26.698Z,20.80
2023-02-15T12:49:21.509Z,21.30
2023-02-15T12:51:56.539Z,20.30
2023-02-15T12:54:39.939Z,20.30
2023-02-15T12:57:31.951Z,20.20
2023-02-15T13:00:09.466Z,19.10
2023-02-15T13:02:50.052Z,19.00
2023-02-15T13:05:39.817Z,18.30
2023-02-15T13:08:17.564Z,20.00
2023-02-15T13:11:00.551Z,19.70
2023-02-15T13:13:38.149Z,20.10
2023-02-15T13:16:17.144Z,19.60
2023-02-15T13:18:54.189Z,20.30
2023-02-15T13:21:33.474Z,20.70
2023-02-15T13:24:18.209Z,21.60
2023-02-15T13:26:54.832Z,18.60
2023-02-15T13:29:34.775Z,20.50
2023-02-15T13:32:15.745Z,20.10
2023-02-15T13:34:49.751Z,18.60
2023-02-15T13:37:31.951Z,17.90
2023-02-15T13:40:11.783Z,18.80
2023-02-15T13:42:49.774Z,19.70
2023-02-15T13:45:46.228Z,19.30
2023-02-15T13:48:45.667Z,22.50
2023-02-15T13:51:29.363Z,22.20
2023-02-15T13:54:24.451Z,20.30
2023-02-15T13:57:08.973Z,20.40
2023-02-15T14:00:00.100Z,20.10
2023-02-15T14:02:50.125Z,20.20
2023-02-15T14:05:38.632Z,19.90
2023-02-15T14:11:00.370Z,19.70
2023-02-15T14:14:03.492Z,23.10
2023-02-15T14:16:54.487Z,22.00
2023-02-15T14:19:42.544Z,23.00
2023-02-15T14:22:24.423Z,22.50
2023-02-15T14:25:18.523Z,21.30
2023-02-15T14:28:03.005Z,21.80
2023-02-15T14:30:39.719Z,23.00
2023-02-15T14:33:34.492Z,21.00
2023-02-15T14:36:13.410Z,23.90
2023-02-15T14:39:02.214Z,22.50
2023-02-15T14:41:46.319Z,21.70
2023-02-15T14:44:30.176Z,23.60
2023-02-15T14:47:09.315Z,25.60
2023-02-15T14:49:44.183Z,24.70
2023-02-15T14:52:18.109Z,25.40
2023-02-15T14:55:06.949Z,24.80
2023-02-15T14:57:42.129Z,23.40
2023-02-15T15:00:40.698Z,21.00
2023-02-15T15:03:30.520Z,20.50
2023-02-15T15:06:07.864Z,22.30
2023-02-15T15:08:43.969Z,24.70
2023-02-15T15:11:47.749Z,21.20
2023-02-15T15:14:47.156Z,20.10
2023-02-15T15:18:02.192Z,23.10
2023-02-15T15:20:54.580Z,22.30
2023-02-15T15:23:47.182Z,20.90
2023-02-15T15:26:30.974Z,19.50
2023-02-15T15:29:06.311Z,19.30
2023-02-15T15:31:50.981Z,20.00
2023-02-15T15:35:04.149Z,18.90
2023-02-15T15:37:57.208Z,17.80
2023-02-15T15:41:06.477Z,20.40
2023-02-15T15:44:08.438Z,19.20
2023-02-15T15:47:10.860Z,18.70
2023-02-15T15:49:44.839Z,20.40
2023-02-15T15:52:21.894Z,22.50
2023-02-15T15:54:59.570Z,20.70
2023-02-15T15:57:38.307Z,19.80
2023-02-15T16:00:38.739Z,19.80
2023-02-15T16:03:24.090Z,19.20
2023-02-15T16:06:02.280Z,20.00
2023-02-15T16:08:41.733Z,19.50
2023-02-15T16:11:21.632Z,19.30
2023-02-15T16:13:56.779Z,20.10
2023-02-15T16:16:32.316Z,21.40
2023-02-15T16:19:08.010Z,21.10
2023-02-15T16:21:42.942Z,17.30
2023-02-15T16:24:39.459Z,17.80
2023-02-15T16:27:29.628Z,18.10
2023-02-15T16:30:24.107Z,22.40
2023-02-15T16:33:10.238Z,20.40
2023-02-15T16:35:59.192Z,26.00
2023-02-15T16:39:09.934Z,23.30
2023-02-15T16:41:47.435Z,21.70
2023-02-15T16:44:27.049Z,20.90
2023-02-15T16:47:03.676Z,25.20
2023-02-15T16:49:47.079Z,17.50
2023-02-15T16:52:26.957Z,20.90
2023-02-15T16:55:04.482Z,19.20
2023-02-15T16:57:41.272Z,21.00
2023-02-15T17:00:25.458Z,20.50
2023-02-15T17:03:05.360Z,19.80
2023-02-15T17:05:58.022Z,18.90
2023-02-15T17:08:36.046Z,19.00
2023-02-15T17:11:17.736Z,20.40
2023-02-15T17:14:26.246Z,20.10
2023-02-15T17:17:09.323Z,21.80
2023-02-15T17:20:00.798Z,21.70
2023-02-15T17:22:37.914Z,19.50
2023-02-15T17:25:27.414Z,19.60
2023-02-15T17:28:08.230Z,18.40
2023-02-15T17:30:48.460Z,25.40
2023-02-15T17:33:41.090Z,20.60
2023-02-15T17:36:23.656Z,20.70
2023-02-15T17:39:25.146Z,18.30
2023-02-15T17:42:07.700Z,22.70
2023-02-15T17:44:45.496Z,25.70
2023-02-15T17:47:28.614Z,22.60
2023-02-15T17:50:08.470Z,22.20
2023-02-15T17:52:44.588Z,21.90
2023-02-15T17:55:44.702Z,21.70
2023-02-15T17:58:25.621Z,21.80
2023-02-15T18:01:26.369Z,23.20
2023-02-15T18:04:31.423Z,20.70
2023-02-15T18:07:29.479Z,20.00
2023-02-15T18:10:33.040Z,21.20
2023-02-15T18:13:09.951Z,22.20
2023-02-15T18:15:47.104Z,21.80
2023-02-15T18:21:02.440Z,20.60
2023-02-15T18:23:47.954Z,21.60
2023-02-15T18:26:25.832Z,23.10
2023-02-15T18:29:09.742Z,23.10
2023-02-15T18:31:52.371Z,21.10
2023-02-15T18:34:40.714Z,19.40
2023-02-15T18:37:20.708Z,24.20
2023-02-15T18:40:00.605Z,21.60
2023-02-15T18:42:40.552Z,22.90
2023-02-15T18:45:22.741Z,21.20
2023-02-15T18:47:59.984Z,21.20
2023-02-15T18:50:42.262Z,24.10
2023-02-15T18:53:23.161Z,22.60
2023-02-15T18:56:06.939Z,25.00
2023-02-15T18:58:47.168Z,23.30
2023-02-15T19:01:28.644Z,23.20
2023-02-15T19:04:20.869Z,23.40
2023-02-15T19:06:59.907Z,24.10
2023-02-15T19:09:38.674Z,24.50
2023-02-15T19:12:18.224Z,25.40
2023-02-15T19:15:04.858Z,22.90
2023-02-15T19:17:50.621Z,25.10
2023-02-15T19:20:37.953Z,26.90
2023-02-15T19:23:20.710Z,26.60
2023-02-15T19:26:00.540Z,25.80
2023-02-15T19:28:39.326Z,23.70
2023-02-15T19:34:01.107Z,24.60
2023-02-15T19:36:47.036Z,26.20
2023-02-15T19:42:16.624Z,25.30
2023-02-15T19:45:16.954Z,23.30
2023-02-15T19:47:55.141Z,25.10
2023-02-15T19:50:36.432Z,23.20
2023-02-15T19:53:27.923Z,23.50
2023-02-15T19:56:10.298Z,24.40
2023-02-15T19:58:50.784Z,25.50
2023-02-15T20:01:33.727Z,24.90
2023-02-15T20:04:17.137Z,27.70
2023-02-15T20:06:57.927Z,26.30
2023-02-15T20:09:42.042Z,22.70
2023-02-15T20:12:26.130Z,25.70
2023-02-15T20:15:06.394Z,25.90
2023-02-15T20:17:50.222Z,25.70
2023-02-15T20:20:32.831Z,29.20
2023-02-15T20:23:17.774Z,29.80
2023-02-15T20:26:05.793Z,29.80
2023-02-15T20:28:45.090Z,27.50
2023-02-15T20:31:36.590Z,26.20
2023-02-15T20:34:15.314Z,26.80
2023-02-15T20:36:59.334Z,23.10
2023-02-15T20:39:38.625Z,29.00
2023-02-15T20:42:18.333Z,39.20
2023-02-15T20:44:55.858Z,27.20
2023-02-15T20:47:32.793Z,27.30
2023-02-15T20:50:13.151Z,24.90
2023-02-15T20:52:51.266Z,25.90
2023-02-15T20:55:32.040Z,24.70
2023-02-15T20:58:26.654Z,26.40
2023-02-15T21:01:04.580Z,26.00
2023-02-15T21:03:42.945Z,26.10
2023-02-15T21:06:22.816Z,28.90
2023-02-15T21:09:04.910Z,27.70
2023-02-15T21:11:47.028Z,28.10
2023-02-15T21:14:32.407Z,28.00
2023-02-15T21:17:10.998Z,32.40
2023-02-15T21:19:52.625Z,31.40
2023-02-15T21:22:30.301Z,28.70
2023-02-15T21:25:33.277Z,27.50
2023-02-15T21:28:18.077Z,28.60
2023-02-15T21:30:55.032Z,29.70
2023-02-15T21:33:38.056Z,28.90
2023-02-15T21:36:23.090Z,28.80
2023-02-15T21:39:07.558Z,28.40
2023-02-15T21:42:08.705Z,27.20
2023-02-15T21:45:03.289Z,26.30
2023-02-15T21:47:53.829Z,27.60
2023-02-15T21:50:48.216Z,27.60
2023-02-15T21:53:27.044Z,29.40
2023-02-15T21:56:05.160Z,27.20
2023-02-15T21:58:43.564Z,29.90
2023-02-15T22:01:24.809Z,28.30
2023-02-15T22:04:00.651Z,27.50
2023-02-15T22:06:34.590Z,30.10
2023-02-15T22:09:15.359Z,26.60
2023-02-15T22:11:49.773Z,28.10
2023-02-15T22:14:39.432Z,28.20
2023-02-15T22:17:18.509Z,30.30
2023-02-15T22:19:53.622Z,26.80
2023-02-15T22:22:28.640Z,27.20
2023-02-15T22:25:02.186Z,27.10
2023-02-15T22:27:41.003Z,26.60
2023-02-15T22:30:26.494Z,25.60
2023-02-15T22:33:02.342Z,28.70
2023-02-15T22:35:37.384Z,28.30
2023-02-15T22:38:10.713Z,28.20
2023-02-15T22:40:44.817Z,27.00
2023-02-15T22:43:29.674Z,28.00
2023-02-15T22:46:06.042Z,28.00
2023-02-15T22:48:39.912Z,31.80
2023-02-15T22:51:16.042Z,29.40
2023-02-15T22:53:52.160Z,28.90
2023-02-15T22:56:36.703Z,29.40
2023-02-15T22:59:17.581Z,29.40
2023-02-15T23:01:51.791Z,29.80
2023-02-15T23:04:27.852Z,30.50
2023-02-15T23:07:11.540Z,31.20
2023-02-15T23:09:45.860Z,31.90
2023-02-15T23:12:27.924Z,32.30
2023-02-15T23:15:01.834Z,32.20
2023-02-15T23:17:35.293Z,30.50
2023-02-15T23:20:15.366Z,31.80
2023-02-15T23:22:49.403Z,34.80
2023-02-15T23:25:25.541Z,32.40
2023-02-15T23:27:59.141Z,33.20
2023-02-15T23:30:33.458Z,33.50
2023-02-15T23:33:07.844Z,33.00
2023-02-15T23:35:42.324Z,30.90
2023-02-15T23:38:23.404Z,32.60
2023-02-15T23:41:19.824Z,34.30
2023-02-15T23:43:57.674Z,34.50
2023-02-15T23:46:40.782Z,32.90
2023-02-15T23:49:17.000Z,34.00
2023-02-15T23:51:52.498Z,30.90
2023-02-15T23:54:27.808Z,35.10
2023-02-15T23:57:03.878Z,36.90
2023-02-15T23:59:42.798Z,36.40
